Time;durP1;ratioP1;P1;durP2;ratioP2;P2;SDS_P1;SDS_P2;PMS_P1;PMS_P2;Temp;Humidity;BMP_temperature;BMP_pressure;BME280_temperature;BME280_humidity;BME280_pressure;Samples;Min_cycle;Max_cycle;Signal;HPM_P1;HPM_P2
2022/10/16 00:02:41;;;;;;;0.10;0.10;;;;;;;12.05;100.00;100845.69;10413411;28;20029;-74
2022/10/16 00:07:41;;;;;;;0.00;0.00;;;;;;;12.02;100.00;100845.22;10426450;28;20036;-74
2022/10/16 00:12:41;;;;;;;0.10;0.10;;;;;;;12.01;100.00;100849.69;10422561;28;20402;-74
2022/10/16 00:17:42;;;;;;;0.10;0.10;;;;;;;12.02;100.00;100851.38;10413568;28;20260;-74
2022/10/16 00:22:42;;;;;;;0.10;0.10;;;;;;;12.04;100.00;100853.88;10412839;28;20021;-74
2022/10/16 00:27:42;;;;;;;0.10;0.10;;;;;;;12.08;100.00;100856.03;10430809;28;20107;-73
2022/10/16 00:32:43;;;;;;;0.10;0.10;;;;;;;12.15;100.00;100857.03;10439035;28;20029;-73
2022/10/16 00:37:43;;;;;;;0.10;0.10;;;;;;;12.22;100.00;100860.69;10413123;28;20036;-74
2022/10/16 00:42:43;;;;;;;0.10;0.10;;;;;;;12.28;100.00;100875.22;10436660;28;20313;-74
2022/10/16 00:47:48;;;;;;;0.10;0.10;;;;;;;12.28;100.00;100883.22;10452559;28;20102;-74
2022/10/16 00:52:51;;;;;;;0.10;0.10;;;;;;;12.23;100.00;100873.03;10434306;28;20036;-74
2022/10/16 00:57:52;;;;;;;0.10;0.10;;;;;;;12.17;100.00;100872.88;10412045;28;20025;-74
2022/10/16 01:02:54;;;;;;;0.10;0.10;;;;;;;12.06;100.00;100866.03;10411171;28;20021;-74
2022/10/16 01:08:18;;;;;;;0.10;0.10;;;;;;;11.98;100.00;100877.59;10408411;28;20245;-74
2022/10/16 01:13:27;;;;;;;0.10;0.10;;;;;;;11.92;100.00;100877.41;10409366;28;20025;-74
2022/10/16 01:18:33;;;;;;;0.10;0.10;;;;;;;11.88;100.00;100876.91;10450062;28;20056;-74
2022/10/16 01:23:57;;;;;;;0.05;0.05;;;;;;;11.84;100.00;100880.03;10451662;28;20033;-74
2022/10/16 01:29:14;;;;;;;0.00;0.00;;;;;;;11.83;100.00;100881.03;10410985;28;20044;-74
2022/10/16 01:34:21;;;;;;;0.10;0.10;;;;;;;11.78;100.00;100882.38;10451497;28;20408;-74
2022/10/16 01:39:28;;;;;;;0.10;0.10;;;;;;;11.73;100.00;100886.53;10450936;28;20017;-73
2022/10/16 01:44:32;;;;;;;0.10;0.10;;;;;;;11.69;100.00;100888.72;10450070;28;20472;-74
2022/10/16 01:49:36;;;;;;;0.10;0.10;;;;;;;11.65;100.00;100886.53;10433782;28;20028;-74
2022/10/16 01:54:40;;;;;;;0.00;0.00;;;;;;;11.59;100.00;100893.34;10450432;28;20021;-74
2022/10/16 01:59:46;;;;;;;0.10;0.10;;;;;;;11.54;100.00;100885.00;10451000;28;20039;-74
2022/10/16 02:04:51;;;;;;;0.10;0.10;;;;;;;11.48;100.00;100885.66;10434163;28;20500;-74
2022/10/16 02:09:52;;;;;;;0.10;0.10;;;;;;;11.42;100.00;100870.31;10449511;28;20369;-74
2022/10/16 02:14:53;;;;;;;0.10;0.10;;;;;;;11.38;100.00;100880.47;10447203;28;20017;-74
2022/10/16 02:19:56;;;;;;;0.00;0.00;;;;;;;11.35;100.00;100899.47;10450530;28;20043;-74
2022/10/16 02:25:06;;;;;;;0.00;0.00;;;;;;;11.29;100.00;100903.63;10413635;28;20021;-74
2022/10/16 02:30:28;;;;;;;0.00;0.00;;;;;;;11.27;100.00;100897.59;10408803;28;20053;-74
2022/10/16 02:35:31;;;;;;;0.10;0.10;;;;;;;11.24;100.00;100894.44;10408208;28;20063;-74
2022/10/16 02:40:32;;;;;;;0.10;0.10;;;;;;;11.20;100.00;100895.72;10408524;28;20370;-74
2022/10/16 02:45:33;;;;;;;0.10;0.10;;;;;;;11.13;100.00;100903.53;10407197;28;20022;-74
2022/10/16 02:50:33;;;;;;;0.10;0.10;;;;;;;11.05;100.00;100899.03;10408544;28;20045;-74
2022/10/16 02:55:33;;;;;;;0.10;0.10;;;;;;;11.00;100.00;100901.34;10407924;28;20015;-74
2022/10/16 03:00:34;;;;;;;0.00;0.00;;;;;;;10.94;100.00;100898.47;10443644;28;20472;-73
2022/10/16 03:05:34;;;;;;;0.00;0.00;;;;;;;10.90;100.00;100897.13;10443608;28;20025;-74
2022/10/16 03:10:34;;;;;;;0.10;0.10;;;;;;;10.86;100.00;100888.63;10418086;28;20269;-74
2022/10/16 03:15:34;;;;;;;0.10;0.10;;;;;;;10.83;100.00;100892.44;10437438;28;20279;-74
2022/10/16 03:20:35;;;;;;;0.10;0.10;;;;;;;10.82;100.00;100888.09;10434747;28;20029;-74
2022/10/16 03:25:35;;;;;;;0.10;0.10;;;;;;;10.84;100.00;100886.09;10424931;28;20024;-74
2022/10/16 03:30:36;;;;;;;0.10;0.10;;;;;;;10.84;100.00;100883.44;10449784;28;20060;-75
2022/10/16 03:35:36;;;;;;;0.10;0.10;;;;;;;10.85;100.00;100893.13;10408955;28;20025;-75
2022/10/16 03:40:36;;;;;;;0.10;0.10;;;;;;;10.86;100.00;100901.94;10415006;28;20260;-74
2022/10/16 03:45:37;;;;;;;0.10;0.10;;;;;;;10.88;100.00;100910.63;10415287;28;20765;-74
2022/10/16 03:50:37;;;;;;;0.10;0.10;;;;;;;10.85;100.00;100906.44;10415415;28;20480;-74
2022/10/16 03:55:38;;;;;;;0.10;0.10;;;;;;;10.85;100.00;100906.44;10432447;28;20071;-73
2022/10/16 04:00:42;;;;;;;0.10;0.10;;;;;;;10.87;100.00;100922.25;10455785;28;20017;-74
2022/10/16 04:05:42;;;;;;;0.10;0.10;;;;;;;10.87;100.00;100920.41;10446405;28;20024;-74
2022/10/16 04:10:43;;;;;;;0.10;0.10;;;;;;;10.94;100.00;100933.09;10449591;28;20498;-74
2022/10/16 04:15:45;;;;;;;0.10;0.10;;;;;;;10.96;100.00;100936.47;10414835;28;20487;-73
2022/10/16 04:20:45;;;;;;;0.10;0.10;;;;;;;10.96;100.00;100925.78;10420601;28;20082;-73
2022/10/16 04:25:46;;;;;;;0.00;0.00;;;;;;;10.97;100.00;100924.81;10453929;28;20021;-74
2022/10/16 04:30:46;;;;;;;0.00;0.00;;;;;;;10.88;100.00;100926.59;10463761;22;20046;-89
2022/10/16 04:35:46;;;;;;;0.10;0.10;;;;;;;10.95;100.00;100948.13;10353295;28;20026;-89
2022/10/16 04:40:47;;;;;;;0.10;0.10;;;;;;;11.01;100.00;100952.81;10353191;28;20081;-89
2022/10/16 04:45:47;;;;;;;0.10;0.10;;;;;;;11.01;100.00;100948.31;10356803;28;20541;-89
2022/10/16 04:50:48;;;;;;;0.10;0.10;;;;;;;11.05;100.00;100944.34;10369453;28;20159;-90
2022/10/16 04:55:49;;;;;;;0.10;0.10;;;;;;;11.21;100.00;100956.91;10369086;28;20033;-89
2022/10/16 05:00:49;;;;;;;0.10;0.10;;;;;;;11.26;100.00;100951.09;10359028;28;20081;-88
2022/10/16 05:05:50;;;;;;;0.10;0.10;;;;;;;11.32;100.00;100969.97;10358423;28;20132;-90
2022/10/16 05:10:50;;;;;;;0.10;0.10;;;;;;;11.32;100.00;100977.97;10362388;28;20112;-88
2022/10/16 05:15:51;;;;;;;0.10;0.10;;;;;;;11.39;100.00;100985.31;10354786;28;20122;-88
2022/10/16 05:20:51;;;;;;;0.10;0.10;;;;;;;11.41;100.00;100972.66;10358696;28;20060;-88
2022/10/16 05:25:53;;;;;;;0.10;0.10;;;;;;;11.37;100.00;100977.47;10354986;28;20027;-88
2022/10/16 05:30:54;;;;;;;0.10;0.10;;;;;;;11.56;100.00;100990.53;10356682;28;20084;-89
2022/10/16 05:35:54;;;;;;;0.10;0.10;;;;;;;11.58;100.00;100993.06;10360434;28;20026;-89
2022/10/16 05:40:54;;;;;;;0.10;0.10;;;;;;;11.54;100.00;100991.69;10358742;28;20102;-88
2022/10/16 05:46:05;;;;;;;0.10;0.10;;;;;;;11.50;100.00;100987.69;10367542;28;20104;-89
2022/10/16 05:51:09;;;;;;;0.10;0.10;;;;;;;11.43;100.00;100986.66;10354830;28;20130;-88
2022/10/16 05:56:12;;;;;;;0.10;0.10;;;;;;;11.38;100.00;100991.66;10353713;28;20021;-88
2022/10/16 06:01:15;;;;;;;0.10;0.10;;;;;;;11.40;100.00;100985.13;10357213;28;20030;-86
2022/10/16 06:06:22;;;;;;;0.10;0.10;;;;;;;11.39;100.00;100995.97;10355085;28;20409;-87
2022/10/16 06:11:29;;;;;;;0.10;0.10;;;;;;;11.39;100.00;100993.31;10349653;28;20069;-87
2022/10/16 06:16:29;;;;;;;0.10;0.10;;;;;;;11.41;100.00;101005.50;10356092;28;20052;-87
2022/10/16 06:21:29;;;;;;;0.10;0.10;;;;;;;11.47;100.00;101017.38;10355212;28;20052;-87
2022/10/16 06:26:31;;;;;;;0.10;0.10;;;;;;;11.54;100.00;101023.72;10353631;28;20053;-87
2022/10/16 06:31:33;;;;;;;0.10;0.10;;;;;;;11.67;100.00;101017.94;10375763;28;20350;-88
2022/10/16 06:36:33;;;;;;;0.10;0.10;;;;;;;11.98;100.00;101035.09;10359605;28;20014;-88
2022/10/16 06:41:34;;;;;;;0.10;0.10;;;;;;;12.63;100.00;101025.47;10363275;28;20026;-87
2022/10/16 06:46:35;;;;;;;0.10;0.10;;;;;;;14.38;100.00;101044.06;10367150;28;20021;-89
2022/10/16 06:51:40;;;;;;;0.10;0.10;;;;;;;15.04;100.00;101044.34;10354446;28;20032;-88
2022/10/16 06:56:40;;;;;;;0.00;0.00;;;;;;;14.18;100.00;101054.41;10354906;28;20013;-88
2022/10/16 07:01:40;;;;;;;0.10;0.10;;;;;;;13.57;100.00;101056.03;10355732;28;20053;-88
2022/10/16 07:06:41;;;;;;;0.10;0.10;;;;;;;13.36;100.00;101059.31;10359254;28;20015;-88
2022/10/16 07:11:41;;;;;;;0.10;0.10;;;;;;;13.32;100.00;101077.53;10356163;28;20021;-88
2022/10/16 07:16:42;;;;;;;0.10;0.10;;;;;;;13.96;100.00;101082.81;10362064;28;20028;-88
2022/10/16 07:21:42;;;;;;;0.10;0.10;;;;;;;15.73;100.00;101092.41;10368562;28;20257;-88
2022/10/16 07:26:44;;;;;;;0.10;0.10;;;;;;;15.49;100.00;101100.75;10354510;28;20371;-89
2022/10/16 07:31:46;;;;;;;0.10;0.10;;;;;;;15.08;100.00;101098.47;10355326;28;20036;-88
2022/10/16 07:36:50;;;;;;;0.10;0.10;;;;;;;14.48;100.00;101108.94;10361747;28;20026;-88
2022/10/16 07:41:53;;;;;;;;;;;;;;;14.14;100.00;101122.75;10352838;28;20019;-88
2022/10/16 07:46:57;;;;;;;0.10;0.10;;;;;;;13.77;100.00;101110.84;10355374;28;19921;-88
2022/10/16 07:51:57;;;;;;;0.10;0.10;;;;;;;14.27;100.00;101111.44;10350493;28;20038;-88
2022/10/16 07:56:58;;;;;;;0.10;0.10;;;;;;;14.84;100.00;101137.06;10360131;28;20494;-89
2022/10/16 08:01:58;;;;;;;0.10;0.10;;;;;;;14.77;100.00;101144.97;10360087;28;20038;-88
2022/10/16 08:06:58;;;;;;;0.10;0.10;;;;;;;14.47;100.00;101139.47;10376287;28;20053;-88
2022/10/16 08:11:58;;;;;;;0.10;0.10;;;;;;;15.23;100.00;101142.25;10362713;28;20018;-89
2022/10/16 08:16:59;;;;;;;0.10;0.10;;;;;;;14.96;100.00;101142.84;10358294;28;20010;-89
2022/10/16 08:22:02;;;;;;;0.10;0.10;;;;;;;14.80;100.00;101152.66;10352805;28;20018;-89
2022/10/16 08:27:03;;;;;;;0.10;0.10;;;;;;;14.70;100.00;101144.88;10363020;28;20281;-88
2022/10/16 08:32:03;;;;;;;0.10;0.10;;;;;;;16.17;100.00;101147.94;10365423;28;20040;-88
2022/10/16 08:37:04;;;;;;;0.00;0.00;;;;;;;17.18;100.00;101151.50;10359621;28;20025;-88
2022/10/16 08:42:37;;;;;;;0.10;0.10;;;;;;;17.98;100.00;101167.41;10360202;28;20037;-88
2022/10/16 08:48:01;;;;;;;0.05;0.05;;;;;;;18.33;100.00;101173.56;10352145;28;20022;-88
2022/10/16 08:53:04;;;;;;;0.00;0.00;;;;;;;18.40;100.00;101187.91;10352671;28;20419;-88
2022/10/16 08:58:13;;;;;;;0.00;0.00;;;;;;;17.46;100.00;101196.47;10353843;28;20049;-88
2022/10/16 09:03:45;;;;;;;0.10;0.10;;;;;;;17.28;100.00;101188.88;10358498;28;20344;-88
2022/10/16 09:15:02;;;;;;;0.00;0.00;;;;;;;17.59;100.00;101215.41;10354615;28;20026;-88
2022/10/16 09:20:22;;;;;;;0.10;0.10;;;;;;;17.32;100.00;101210.84;10354000;28;20034;-89
2022/10/16 09:25:23;;;;;;;0.00;0.00;;;;;;;17.26;100.00;101201.69;10356104;28;20027;-89
2022/10/16 09:30:29;;;;;;;0.00;0.00;;;;;;;17.40;100.00;101218.78;10361800;28;20034;-88
2022/10/16 09:35:39;;;;;;;0.10;0.10;;;;;;;17.68;100.00;101216.09;10368572;28;20002;-89
2022/10/16 09:40:42;;;;;;;0.10;0.10;;;;;;;17.95;100.00;101224.38;10360027;28;20038;-88
2022/10/16 09:45:43;;;;;;;0.03;0.03;;;;;;;18.31;100.00;101234.94;10350920;28;20030;-89
2022/10/16 09:50:43;;;;;;;0.00;0.00;;;;;;;18.19;100.00;101231.16;10349995;28;20026;-89
2022/10/16 09:55:51;;;;;;;0.10;0.10;;;;;;;17.58;100.00;101234.47;10351125;28;20018;-89
2022/10/16 10:00:53;;;;;;;0.03;0.03;;;;;;;17.54;100.00;101225.94;10346461;28;20041;-89
2022/10/16 10:05:54;;;;;;;0.00;0.00;;;;;;;17.43;100.00;101248.03;10354291;28;20054;-88
2022/10/16 10:10:54;;;;;;;0.10;0.10;;;;;;;17.34;100.00;101259.97;10350253;28;20509;-89
2022/10/16 10:15:55;;;;;;;0.00;0.00;;;;;;;17.54;100.00;101252.03;10352387;28;20049;-89
2022/10/16 10:21:00;;;;;;;0.10;0.10;;;;;;;17.73;100.00;101256.75;10353079;28;20029;-89
2022/10/16 10:26:14;;;;;;;0.00;0.00;;;;;;;17.47;100.00;101262.75;10347985;28;20052;-88
2022/10/16 10:36:49;;;;;;;0.00;0.00;;;;;;;17.52;100.00;101281.03;10447214;28;20092;-75
2022/10/16 10:41:59;;;;;;;0.00;0.00;;;;;;;17.56;100.00;101288.50;10437441;28;20025;-75
2022/10/16 10:47:17;;;;;;;0.10;0.10;;;;;;;17.35;100.00;101281.28;10424168;28;20021;-75
2022/10/16 10:52:51;;;;;;;0.00;0.00;;;;;;;17.26;100.00;101295.91;10439062;28;20029;-75
2022/10/16 10:58:19;;;;;;;0.00;0.00;;;;;;;17.19;100.00;101309.31;10436175;28;20048;-75
2022/10/16 11:03:37;;;;;;;0.10;0.10;;;;;;;17.32;100.00;101311.28;10426892;28;20028;-75
2022/10/16 11:08:43;;;;;;;0.00;0.00;;;;;;;17.46;100.00;101320.34;10437608;28;20480;-75
2022/10/16 11:14:08;;;;;;;0.08;0.08;;;;;;;17.27;100.00;101313.72;10424187;28;20009;-75
2022/10/16 11:19:22;;;;;;;0.00;0.00;;;;;;;17.10;100.00;101323.06;10416456;28;20021;-75
2022/10/16 11:24:40;;;;;;;0.10;0.10;;;;;;;17.15;100.00;101328.72;10434368;28;20027;-75
2022/10/16 11:29:48;;;;;;;0.00;0.00;;;;;;;17.05;100.00;101347.88;10431667;28;20484;-75
2022/10/16 11:34:53;;;;;;;0.00;0.00;;;;;;;16.84;100.00;101347.78;10445094;28;20039;-75
2022/10/16 11:40:03;;;;;;;0.00;0.00;;;;;;;16.63;100.00;101357.41;10439969;28;20035;-75
2022/10/16 11:45:06;;;;;;;0.00;0.00;;;;;;;16.52;100.00;101355.19;10441464;28;20475;-75
2022/10/16 11:50:50;;;;;;;0.00;0.00;;;;;;;16.48;100.00;101372.72;10438778;28;20021;-76
2022/10/16 11:55:50;;;;;;;0.10;0.10;;;;;;;16.38;100.00;101374.88;10441211;28;20026;-76
2022/10/16 12:01:09;;;;;;;0.05;0.05;;;;;;;16.29;100.00;101372.25;10439162;28;20110;-76
2022/10/16 12:06:37;;;;;;;0.10;0.10;;;;;;;16.18;100.00;101382.63;10432854;28;20075;-75
2022/10/16 12:11:38;;;;;;;0.10;0.10;;;;;;;16.09;100.00;101378.34;10436439;28;20020;-75
2022/10/16 12:16:59;;;;;;;0.00;0.00;;;;;;;16.00;100.00;101388.31;10431886;28;20480;-75
2022/10/16 12:22:03;;;;;;;0.10;0.10;;;;;;;16.16;100.00;101398.91;10435499;28;20026;-74
2022/10/16 12:27:27;;;;;;;0.00;0.00;;;;;;;16.21;100.00;101401.06;10434587;28;20071;-75
2022/10/16 12:32:27;;;;;;;0.10;0.10;;;;;;;16.17;100.00;101403.25;10421077;28;20021;-74
2022/10/16 12:37:30;;;;;;;0.03;0.03;;;;;;;16.12;100.00;101397.63;10413307;28;20010;-74
2022/10/16 12:42:33;;;;;;;0.00;0.00;;;;;;;16.30;100.00;101413.41;10452398;28;20041;-75
2022/10/16 12:47:34;;;;;;;0.10;0.10;;;;;;;16.31;100.00;101425.81;10421584;28;20030;-74
2022/10/16 12:52:35;;;;;;;0.10;0.10;;;;;;;16.22;100.00;101435.81;10430957;28;20021;-74
2022/10/16 12:58:01;;;;;;;0.10;0.10;;;;;;;16.25;100.00;101434.63;10433229;28;20072;-74
2022/10/16 13:03:33;;;;;;;0.03;0.03;;;;;;;16.41;100.00;101439.84;10439279;28;20013;-75
2022/10/16 13:09:02;;;;;;;0.10;0.10;;;;;;;16.58;100.00;101456.69;10429100;28;20033;-75
2022/10/16 13:14:21;;;;;;;0.10;0.10;;;;;;;16.64;100.00;101461.31;10429645;28;20035;-75
2022/10/16 13:19:21;;;;;;;0.10;0.10;;;;;;;16.57;100.00;101476.50;10426446;28;20071;-75
2022/10/16 13:24:40;;;;;;;0.00;0.00;;;;;;;16.62;100.00;101476.78;10422950;28;20476;-74
2022/10/16 13:29:41;;;;;;;0.03;0.03;;;;;;;16.53;100.00;101480.59;10431564;28;20550;-75
2022/10/16 13:34:46;;;;;;;0.00;0.00;;;;;;;16.51;100.00;101504.94;10426325;28;20017;-75
2022/10/16 13:39:47;;;;;;;0.10;0.10;;;;;;;16.64;100.00;101503.50;10422773;28;20021;-75
2022/10/16 13:44:50;;;;;;;0.00;0.00;;;;;;;16.69;100.00;101510.00;10433791;28;20426;-75
2022/10/16 13:50:06;;;;;;;0.03;0.03;;;;;;;16.69;100.00;101512.69;10431843;28;20024;-74
2022/10/16 13:55:18;;;;;;;0.00;0.00;;;;;;;16.49;100.00;101516.91;10436848;28;20024;-74
2022/10/16 14:00:25;;;;;;;0.10;0.10;;;;;;;16.21;100.00;101530.09;10445162;28;20075;-74
2022/10/16 14:05:26;;;;;;;0.10;0.10;;;;;;;16.16;100.00;101535.97;10409834;28;20029;-75
2022/10/16 14:10:30;;;;;;;0.10;0.10;;;;;;;16.26;100.00;101539.28;10425513;28;20461;-74
2022/10/16 14:15:33;;;;;;;0.10;0.10;;;;;;;16.29;100.00;101536.25;10422597;28;20040;-75
2022/10/16 14:20:34;;;;;;;0.00;0.00;;;;;;;16.33;100.00;101549.31;10435900;28;20024;-74
2022/10/16 14:25:35;;;;;;;0.10;0.10;;;;;;;16.30;100.00;101562.09;10420135;28;20072;-73
2022/10/16 14:30:36;;;;;;;0.10;0.10;;;;;;;16.27;100.00;101570.50;10430346;28;20017;-73
2022/10/16 14:35:38;;;;;;;0.10;0.10;;;;;;;16.20;100.00;101574.94;10443638;28;20023;-73
2022/10/16 14:40:47;;;;;;;0.10;0.10;;;;;;;16.15;100.00;101580.00;10439756;28;20044;-73
2022/10/16 14:45:54;;;;;;;0.10;0.10;;;;;;;16.00;100.00;101576.41;10426012;28;20018;-74
2022/10/16 14:50:54;;;;;;;0.10;0.10;;;;;;;15.83;100.00;101587.22;10434378;28;20029;-74
2022/10/16 14:55:55;;;;;;;0.00;0.00;;;;;;;15.70;100.00;101597.69;10423281;28;20056;-73
2022/10/16 15:00:56;;;;;;;0.10;0.10;;;;;;;15.64;100.00;101601.03;10436645;28;20076;-74
2022/10/16 15:05:56;;;;;;;0.10;0.10;;;;;;;15.57;100.00;101600.91;10420933;28;20468;-74
2022/10/16 15:10:56;;;;;;;0.10;0.10;;;;;;;15.43;100.00;101607.00;10418592;28;20041;-73
2022/10/16 15:15:58;;;;;;;0.00;0.00;;;;;;;15.29;100.00;101595.09;10440528;28;20108;-74
2022/10/16 15:20:58;;;;;;;0.10;0.10;;;;;;;15.20;100.00;101600.66;10410926;28;20022;-74
2022/10/16 15:25:59;;;;;;;0.10;0.10;;;;;;;15.07;100.00;101607.41;10409956;28;20033;-74
2022/10/16 15:30:59;;;;;;;0.10;0.10;;;;;;;14.92;100.00;101617.13;10421068;28;20487;-74
2022/10/16 15:36:01;;;;;;;0.10;0.10;;;;;;;14.76;100.00;101628.69;10410891;28;20083;-73
2022/10/16 15:41:01;;;;;;;0.00;0.00;;;;;;;14.65;100.00;101634.38;10407446;28;20104;-73
2022/10/16 15:46:09;;;;;;;0.10;0.10;;;;;;;14.46;100.00;101635.50;10426770;28;20029;-73
2022/10/16 15:51:10;;;;;;;0.00;0.00;;;;;;;14.27;100.00;101636.63;10434550;28;20052;-74
2022/10/16 15:56:11;;;;;;;0.10;0.10;;;;;;;14.12;100.00;101647.13;10433790;28;20049;-73
2022/10/16 16:01:11;;;;;;;0.13;0.13;;;;;;;13.94;100.00;101649.91;10406809;28;20017;-73
2022/10/16 16:06:13;;;;;;;0.00;0.00;;;;;;;13.77;100.00;101650.84;10406890;28;20029;-73
2022/10/16 16:11:16;;;;;;;0.08;0.08;;;;;;;13.59;100.00;101654.44;10432138;28;20021;-74
2022/10/16 16:16:17;;;;;;;0.10;0.10;;;;;;;13.44;100.00;101663.19;10441827;28;20021;-73
2022/10/16 16:21:17;;;;;;;0.10;0.10;;;;;;;13.24;100.00;101665.22;10438584;28;20443;-73
2022/10/16 16:26:25;;;;;;;0.10;0.10;;;;;;;13.05;100.00;101677.75;10418816;28;20083;-73
2022/10/16 16:31:27;;;;;;;0.10;0.10;;;;;;;12.85;100.00;101686.94;10433127;28;20449;-73
2022/10/16 16:36:28;;;;;;;0.10;0.10;;;;;;;12.64;100.00;101690.75;10416712;28;20021;-73
2022/10/16 16:41:29;;;;;;;0.10;0.10;;;;;;;12.41;100.00;101701.03;10424428;28;20028;-73
2022/10/16 16:46:32;;;;;;;0.10;0.10;;;;;;;12.22;100.00;101715.34;10446411;28;20118;-73
2022/10/16 16:51:33;;;;;;;0.10;0.10;;;;;;;12.07;100.00;101732.00;10453394;28;20388;-73
2022/10/16 16:56:33;;;;;;;0.10;0.10;;;;;;;11.98;100.00;101737.25;10453972;28;20028;-73
2022/10/16 17:01:34;;;;;;;0.10;0.10;;;;;;;11.90;100.00;101741.63;10422117;28;20024;-73
2022/10/16 17:06:34;;;;;;;0.10;0.10;;;;;;;11.76;100.00;101749.06;10445868;28;20020;-73
2022/10/16 17:11:35;;;;;;;0.10;0.10;;;;;;;11.67;100.00;101749.94;10452169;28;20020;-73
2022/10/16 17:16:37;;;;;;;0.10;0.10;;;;;;;11.55;100.00;101764.44;10429123;28;20096;-73
2022/10/16 17:21:37;;;;;;;0.10;0.10;;;;;;;11.45;100.00;101763.59;10421467;28;20074;-73
2022/10/16 17:26:40;;;;;;;0.10;0.10;;;;;;;11.32;100.00;101780.72;10432880;28;20029;-73
2022/10/16 17:31:41;;;;;;;0.10;0.10;;;;;;;11.16;100.00;101787.59;10414291;28;20500;-73
2022/10/16 17:36:45;;;;;;;0.08;0.08;;;;;;;10.99;100.00;101792.63;10412982;28;20025;-73
2022/10/16 17:41:47;;;;;;;0.10;0.10;;;;;;;10.85;100.00;101807.22;10409550;28;20112;-73
2022/10/16 17:46:52;;;;;;;0.10;0.10;;;;;;;10.72;100.00;101819.09;10415292;28;20018;-73
2022/10/16 17:51:53;;;;;;;0.10;0.10;;;;;;;10.63;100.00;101826.06;10409438;28;20029;-73
2022/10/16 17:56:53;;;;;;;0.10;0.10;;;;;;;10.55;100.00;101834.72;10410458;28;20489;-73
2022/10/16 18:01:53;;;;;;;0.10;0.10;;;;;;;10.43;100.00;101831.31;10420307;28;20034;-73
2022/10/16 18:06:59;;;;;;;0.10;0.10;;;;;;;10.35;100.00;101841.78;10433350;28;20280;-73
2022/10/16 18:11:59;;;;;;;0.10;0.10;;;;;;;10.29;100.00;101834.34;10429247;28;20115;-73
2022/10/16 18:17:00;;;;;;;0.10;0.10;;;;;;;10.27;100.00;101832.78;10426974;28;21246;-73
2022/10/16 18:22:01;;;;;;;0.10;0.10;;;;;;;10.18;100.00;101853.00;10423351;28;20482;-74
2022/10/16 18:27:01;;;;;;;0.10;0.10;;;;;;;10.13;100.00;101860.56;10408857;28;20082;-74
2022/10/16 18:32:01;;;;;;;0.10;0.10;;;;;;;10.10;100.00;101858.19;10407920;28;20033;-74
2022/10/16 18:37:02;;;;;;;0.00;0.00;;;;;;;10.10;100.00;101884.81;10408827;28;20010;-74
2022/10/16 18:42:02;;;;;;;0.10;0.10;;;;;;;10.16;100.00;101884.28;10407650;28;20314;-74
2022/10/16 18:47:02;;;;;;;0.00;0.00;;;;;;;10.22;100.00;101886.41;10442114;28;20052;-74
2022/10/16 18:52:03;;;;;;;0.10;0.10;;;;;;;10.15;100.00;101893.22;10434192;28;20476;-74
2022/10/16 18:57:03;;;;;;;0.10;0.10;;;;;;;10.06;100.00;101888.69;10409699;28;20254;-74
2022/10/16 19:02:04;;;;;;;0.10;0.10;;;;;;;9.95;100.00;101897.59;10407008;28;20105;-74
2022/10/16 19:07:04;;;;;;;0.10;0.10;;;;;;;9.83;100.00;101886.16;10407664;28;20018;-74
2022/10/16 19:12:06;;;;;;;0.00;0.00;;;;;;;9.67;100.00;101880.41;10426952;28;20609;-74
2022/10/16 19:17:06;;;;;;;0.00;0.00;;;;;;;9.45;100.00;101895.50;10437422;28;20515;-74
2022/10/16 19:22:26;;;;;;;0.10;0.10;;;;;;;9.33;100.00;101901.78;10442685;28;20284;-74
2022/10/16 19:27:26;;;;;;;0.10;0.10;;;;;;;9.23;100.00;101907.03;10408031;28;20272;-74
2022/10/16 19:32:26;;;;;;;0.00;0.00;;;;;;;9.16;100.00;101915.59;10406625;28;20392;-74
2022/10/16 19:37:26;;;;;;;0.00;0.00;;;;;;;9.09;100.00;101920.56;10445537;28;20036;-74
2022/10/16 19:42:27;;;;;;;0.10;0.10;;;;;;;9.12;100.00;101909.69;10431206;28;20026;-74
2022/10/16 19:47:27;;;;;;;0.10;0.10;;;;;;;9.02;100.00;101925.53;10407807;28;20099;-74
2022/10/16 19:52:27;;;;;;;0.00;0.00;;;;;;;8.86;100.00;101922.41;10431385;28;20712;-74
2022/10/16 19:57:28;;;;;;;0.00;0.00;;;;;;;8.80;100.00;101925.53;10416788;28;20469;-74
2022/10/16 20:02:28;;;;;;;0.10;0.10;;;;;;;8.74;100.00;101920.72;10424618;28;20017;-74
2022/10/16 20:07:29;;;;;;;0.10;0.10;;;;;;;8.63;100.00;101918.03;10454683;28;20070;-73
2022/10/16 20:12:29;;;;;;;0.00;0.00;;;;;;;8.55;100.00;101932.78;10455027;28;20024;-73
2022/10/16 20:17:29;;;;;;;0.00;0.00;;;;;;;8.56;100.00;101942.44;10455909;28;20020;-73
2022/10/16 20:22:29;;;;;;;0.10;0.10;;;;;;;8.58;100.00;101943.16;10454149;28;20017;-73
2022/10/16 20:27:30;;;;;;;0.00;0.00;;;;;;;8.57;100.00;101954.72;10444885;28;20079;-73
2022/10/16 20:32:30;;;;;;;0.03;0.03;;;;;;;8.58;100.00;101945.81;10413159;28;20026;-73
2022/10/16 20:37:30;;;;;;;0.10;0.10;;;;;;;8.49;100.00;101943.84;10413324;28;20484;-73
2022/10/16 20:42:31;;;;;;;0.05;0.05;;;;;;;8.47;100.00;101945.81;10422070;28;20615;-73
2022/10/16 20:47:31;;;;;;;0.10;0.10;;;;;;;8.52;100.00;101948.97;10448831;28;20470;-73
2022/10/16 20:52:32;;;;;;;0.00;0.00;;;;;;;8.63;100.00;101944.59;10451979;28;20023;-73
2022/10/16 20:57:33;;;;;;;0.00;0.00;;;;;;;8.60;100.00;101951.84;10441059;28;20299;-73
2022/10/16 21:02:33;;;;;;;0.10;0.10;;;;;;;8.56;100.00;101965.50;10416383;28;20025;-74
2022/10/16 21:07:33;;;;;;;0.10;0.10;;;;;;;8.57;100.00;101973.31;10433037;28;20044;-73
2022/10/16 21:12:34;;;;;;;0.10;0.10;;;;;;;8.66;100.00;101989.53;10452489;28;20025;-72
2022/10/16 21:17:34;;;;;;;0.00;0.00;;;;;;;8.73;100.00;101996.06;10451582;28;20529;-73
2022/10/16 21:22:34;;;;;;;0.10;0.10;;;;;;;8.81;100.00;102005.13;10451146;28;20387;-73
2022/10/16 21:27:36;;;;;;;0.00;0.00;;;;;;;8.94;100.00;101999.72;10452677;28;20021;-73
2022/10/16 21:32:37;;;;;;;0.10;0.10;;;;;;;9.00;100.00;102007.19;10430913;28;20260;-74
2022/10/16 21:37:38;;;;;;;0.10;0.10;;;;;;;9.04;100.00;102002.47;10416404;28;20033;-73
2022/10/16 21:42:38;;;;;;;0.10;0.10;;;;;;;8.98;100.00;102003.81;10410181;28;20498;-73
2022/10/16 21:47:38;;;;;;;0.00;0.00;;;;;;;8.93;100.00;102003.34;10410350;28;20022;-73
2022/10/16 21:52:38;;;;;;;0.10;0.10;;;;;;;8.89;100.00;102003.69;10411208;28;20021;-73
2022/10/16 21:57:39;;;;;;;0.00;0.00;;;;;;;8.86;100.00;102007.41;10409706;28;20028;-73
2022/10/16 22:02:39;;;;;;;0.10;0.10;;;;;;;8.88;100.00;102013.47;10409269;28;20256;-73
2022/10/16 22:07:39;;;;;;;0.00;0.00;;;;;;;8.88;100.00;102017.94;10423371;28;20018;-73
2022/10/16 22:12:40;;;;;;;0.10;0.10;;;;;;;8.84;100.00;102012.88;10414170;28;20028;-73
2022/10/16 22:17:40;;;;;;;0.10;0.10;;;;;;;8.85;100.00;102000.44;10439640;28;20521;-73
2022/10/16 22:22:41;;;;;;;0.00;0.00;;;;;;;8.88;100.00;102004.66;10410752;28;20046;-72
2022/10/16 22:27:41;;;;;;;0.10;0.10;;;;;;;8.99;100.00;101986.06;10414224;28;20031;-73
2022/10/16 22:32:41;;;;;;;0.00;0.00;;;;;;;9.15;100.00;101969.75;10423553;22;20409;-74
2022/10/16 22:37:42;;;;;;;0.10;0.10;;;;;;;9.28;100.00;101981.09;10301617;28;20516;-73
2022/10/16 22:42:42;;;;;;;0.10;0.10;;;;;;;9.41;100.00;101989.78;10290019;28;20029;-73
2022/10/16 22:47:42;;;;;;;0.10;0.10;;;;;;;9.49;100.00;101997.16;10313127;28;20082;-74
2022/10/16 22:52:42;;;;;;;0.00;0.00;;;;;;;9.43;100.00;101981.69;10290656;28;20097;-74
2022/10/16 22:57:43;;;;;;;0.10;0.10;;;;;;;9.32;100.00;101979.88;10302882;28;20025;-74
2022/10/16 23:02:43;;;;;;;0.10;0.10;;;;;;;9.39;100.00;101950.97;10295267;28;20027;-74
2022/10/16 23:07:45;;;;;;;0.10;0.10;;;;;;;9.61;100.00;101944.78;10306299;28;20113;-74
2022/10/16 23:12:45;;;;;;;0.10;0.10;;;;;;;9.84;100.00;101957.03;10308053;28;20025;-75
2022/10/16 23:17:46;;;;;;;0.10;0.10;;;;;;;10.05;100.00;101948.22;10291794;28;20469;-74